createdAt,value
2018-12-24T00:02:22.029Z,99774.06
2018-12-24T00:04:50.204Z,99767.88
2018-12-24T00:07:18.031Z,99777.31
2018-12-24T00:09:46.145Z,99771.16
2018-12-24T00:12:14.321Z,99773.59
2018-12-24T00:14:42.134Z,99776.02
2018-12-24T00:17:09.966Z,99777.74
2018-12-24T00:19:38.125Z,99777.58
2018-12-24T00:22:06.295Z,99774.78
2018-12-24T00:24:34.369Z,99793.45
2018-12-24T00:27:02.543Z,99802.09
2018-12-24T00:29:30.444Z,99805.27
2018-12-24T00:31:58.590Z,99805.40
2018-12-24T00:34:26.783Z,99805.94
2018-12-24T00:36:54.612Z,99810.52
2018-12-24T00:39:22.703Z,99810.58
2018-12-24T00:41:50.893Z,99813.97
2018-12-24T00:44:19.053Z,99821.75
2018-12-24T00:46:47.225Z,99814.47
2018-12-24T00:49:15.421Z,99806.73
2018-12-24T00:51:43.248Z,99809.25
2018-12-24T00:54:11.076Z,99808.33
2018-12-24T00:56:39.206Z,99809.08
2018-12-24T00:59:07.293Z,99805.72
2018-12-24T01:01:35.453Z,99804.52
2018-12-24T01:04:03.625Z,99810.53
2018-12-24T01:06:31.805Z,99808.28
2018-12-24T01:08:59.630Z,99806.17
2018-12-24T01:11:27.461Z,99805.27
2018-12-24T01:13:55.610Z,99813.85
2018-12-24T01:16:23.787Z,99814.86
2018-12-24T01:18:51.856Z,99806.34
2018-12-24T01:21:19.689Z,99800.84
2018-12-24T01:23:47.512Z,99799.33
2018-12-24T01:26:15.660Z,99788.91
2018-12-24T01:28:43.475Z,99790.59
2018-12-24T01:31:11.300Z,99790.91
2018-12-24T01:33:39.469Z,99790.03
2018-12-24T01:36:07.641Z,99794.39
2018-12-24T01:38:35.460Z,99791.88
2018-12-24T01:41:03.282Z,99784.67
2018-12-24T01:43:31.096Z,99788.17
2018-12-24T01:45:59.215Z,99792.80
2018-12-24T01:48:27.032Z,99798.27
2018-12-24T01:50:55.152Z,99800.34
2018-12-24T01:53:22.977Z,99799.38
2018-12-24T01:55:51.087Z,99803.80
2018-12-24T01:58:19.165Z,99804.76
2018-12-24T02:00:47.339Z,99796.81
2018-12-24T02:03:15.157Z,99800.03
2018-12-24T02:05:43.280Z,99803.34
2018-12-24T02:08:11.102Z,99798.27
2018-12-24T02:10:38.931Z,99804.81
2018-12-24T02:13:07.087Z,99795.77
2018-12-24T02:15:35.255Z,99803.30
2018-12-24T02:18:03.432Z,99798.44
2018-12-24T02:20:31.509Z,99807.05
2018-12-24T02:22:59.680Z,99813.45
2018-12-24T02:25:27.871Z,99808.73
2018-12-24T02:27:56.028Z,99803.05
2018-12-24T02:30:23.923Z,99803.13
2018-12-24T02:32:52.071Z,99806.17
2018-12-24T02:35:20.252Z,99791.92
2018-12-24T02:37:48.090Z,99791.92
2018-12-24T02:40:16.186Z,99813.28
2018-12-24T02:42:52.338Z,99810.06
2018-12-24T02:45:14.179Z,99810.54
2018-12-24T02:47:42.344Z,99806.70
2018-12-24T02:50:10.177Z,99813.85
2018-12-24T02:52:38.292Z,99818.17
2018-12-24T02:55:06.113Z,99810.09
2018-12-24T02:57:33.952Z,99807.80
2018-12-24T03:00:01.846Z,99810.67
2018-12-24T03:02:29.672Z,99809.66
2018-12-24T03:04:57.849Z,99819.77
2018-12-24T03:07:25.671Z,99828.55
2018-12-24T03:09:53.767Z,99823.56
2018-12-24T03:12:21.945Z,99841.34
2018-12-24T03:14:49.777Z,99836.62
2018-12-24T03:17:17.607Z,99849.30
2018-12-24T03:19:45.428Z,99849.30
2018-12-24T03:22:13.253Z,99843.02
2018-12-24T03:24:41.376Z,99845.54
2018-12-24T03:27:09.554Z,99848.50
2018-12-24T03:29:37.376Z,99844.53
2018-12-24T03:32:05.506Z,99836.89
2018-12-24T03:34:33.684Z,99839.75
2018-12-24T03:37:01.513Z,99843.38
2018-12-24T03:39:29.630Z,99846.34
2018-12-24T03:41:57.449Z,99853.53
2018-12-24T03:44:25.544Z,99852.08
2018-12-24T03:46:53.722Z,99851.36
2018-12-24T03:49:21.917Z,99855.12
2018-12-24T03:51:50.070Z,99851.67
2018-12-24T03:54:18.240Z,99859.75
2018-12-24T03:56:46.431Z,99858.48
2018-12-24T03:59:14.253Z,99867.57
2018-12-24T04:01:42.355Z,99867.52
2018-12-24T04:04:10.528Z,99867.88
2018-12-24T04:06:38.910Z,99881.42
2018-12-24T04:09:06.986Z,99880.55
2018-12-24T04:11:35.158Z,99883.38
2018-12-24T04:14:03.349Z,99885.14
2018-12-24T04:16:31.167Z,99886.42
2018-12-24T04:18:59.003Z,99898.08
2018-12-24T04:21:27.137Z,99908.05
2018-12-24T04:23:54.972Z,99908.58
2018-12-24T04:26:22.787Z,99920.50
2018-12-24T04:28:50.963Z,99929.25
2018-12-24T04:31:19.018Z,99934.64
2018-12-24T04:33:46.845Z,99943.07
2018-12-24T04:36:14.660Z,99946.83
2018-12-24T04:38:42.819Z,99955.22
2018-12-24T04:41:10.999Z,99955.22
2018-12-24T04:43:38.825Z,99971.16
2018-12-24T04:46:06.711Z,99978.58
2018-12-24T04:48:34.800Z,99993.95
2018-12-24T04:51:02.615Z,99993.95
2018-12-24T04:53:30.740Z,99997.88
2018-12-24T04:55:58.917Z,100011.88
2018-12-24T04:58:27.089Z,100027.92
2018-12-24T05:00:55.263Z,100027.92
2018-12-24T05:03:23.101Z,100041.38
2018-12-24T05:05:51.205Z,100050.31
2018-12-24T05:08:19.396Z,100050.31
2018-12-24T05:10:47.553Z,100071.74
2018-12-24T05:13:15.728Z,100080.34
2018-12-24T05:15:43.905Z,100100.67
2018-12-24T05:18:11.747Z,100099.06
2018-12-24T05:20:39.845Z,100123.33
2018-12-24T05:23:07.683Z,100136.63
2018-12-24T05:25:35.800Z,100152.13
2018-12-24T05:28:03.959Z,100161.47
2018-12-24T05:30:32.134Z,100179.73
2018-12-24T05:33:00.304Z,100192.03
2018-12-24T05:35:28.481Z,100202.88
2018-12-24T05:37:56.652Z,100218.36
2018-12-24T05:40:24.563Z,100224.33
2018-12-24T05:42:52.406Z,100235.78
2018-12-24T05:45:20.561Z,100247.91
2018-12-24T05:47:48.402Z,100255.83
2018-12-24T05:50:16.500Z,100268.12
2018-12-24T05:52:44.679Z,100290.47
2018-12-24T05:55:12.542Z,100293.52
2018-12-24T05:57:40.621Z,100300.01
2018-12-24T06:00:08.447Z,100317.51
2018-12-24T06:02:36.283Z,100330.02
2018-12-24T06:05:04.430Z,100339.03
2018-12-24T06:07:32.261Z,100352.03
2018-12-24T06:10:00.271Z,100360.86
2018-12-24T06:12:28.113Z,100372.93
2018-12-24T06:14:56.300Z,100389.27
2018-12-24T06:17:24.487Z,100398.19
2018-12-24T06:19:52.649Z,100416.16
2018-12-24T06:22:20.478Z,100424.92
2018-12-24T06:24:48.592Z,100434.36
2018-12-24T06:27:16.765Z,100452.72
2018-12-24T06:29:44.935Z,100462.52
2018-12-24T06:32:13.114Z,100463.86
2018-12-24T06:34:41.299Z,100478.77
2018-12-24T06:37:09.129Z,100490.80
2018-12-24T06:39:37.225Z,100496.84
2018-12-24T06:42:05.056Z,100511.50
2018-12-24T06:44:32.896Z,100521.10
2018-12-24T06:47:01.033Z,100528.55
2018-12-24T06:49:28.899Z,100542.83
2018-12-24T06:51:56.727Z,100547.80
2018-12-24T06:54:24.560Z,100553.02
2018-12-24T06:56:52.711Z,100562.58
2018-12-24T06:59:20.885Z,100563.34
2018-12-24T07:01:49.065Z,100580.43
2018-12-24T07:04:17.236Z,100587.91
2018-12-24T07:06:45.424Z,100594.20
2018-12-24T07:09:13.262Z,100603.95
2018-12-24T07:11:41.455Z,100611.80
2018-12-24T07:14:15.379Z,100617.49
2018-12-24T07:16:39.432Z,100621.82
2018-12-24T07:19:07.271Z,100635.60
2018-12-24T07:21:35.108Z,100637.66
2018-12-24T07:24:02.949Z,100646.29
2018-12-24T07:26:30.781Z,100648.75
2018-12-24T07:28:59.410Z,100663.61
2018-12-24T07:31:27.562Z,100670.26
2018-12-24T07:33:55.733Z,100670.56
2018-12-24T07:36:23.914Z,100675.26
2018-12-24T07:38:51.808Z,100683.73
2018-12-24T07:41:19.971Z,100688.34
2018-12-24T07:43:47.804Z,100699.95
2018-12-24T07:46:15.889Z,100702.70
2018-12-24T07:48:43.735Z,100711.56
2018-12-24T07:51:11.564Z,100722.86
2018-12-24T07:53:39.698Z,100737.50
2018-12-24T07:56:07.869Z,100744.93
2018-12-24T07:58:36.045Z,100743.19
2018-12-24T08:01:04.233Z,100748.49
2018-12-24T08:03:32.087Z,100751.42
2018-12-24T08:05:59.923Z,100768.17
2018-12-24T08:08:27.748Z,100771.36
2018-12-24T08:10:55.585Z,100785.98
2018-12-24T08:13:23.767Z,100791.05
2018-12-24T08:15:51.934Z,100800.54
2018-12-24T08:18:19.766Z,100812.47
2018-12-24T08:20:47.873Z,100822.57
2018-12-24T08:23:16.048Z,100835.70
2018-12-24T08:25:44.220Z,100832.91
2018-12-24T08:28:12.403Z,100840.83
2018-12-24T08:30:40.250Z,100850.22
2018-12-24T08:33:08.354Z,100860.52
2018-12-24T08:35:36.514Z,100853.86
2018-12-24T08:38:04.687Z,100862.42
2018-12-24T08:40:32.860Z,100865.74
2018-12-24T08:43:01.035Z,100870.22
2018-12-24T08:45:29.229Z,100875.33
2018-12-24T08:47:57.381Z,100882.61
2018-12-24T08:50:25.559Z,100882.19
2018-12-24T08:52:53.392Z,100895.47
2018-12-24T08:55:21.237Z,100899.69
2018-12-24T08:57:49.076Z,100903.81
2018-12-24T09:00:16.919Z,100912.45
2018-12-24T09:02:45.108Z,100919.47
2018-12-24T09:05:12.957Z,100920.18
2018-12-24T09:07:41.039Z,100924.43
2018-12-24T09:10:08.882Z,100933.23
2018-12-24T09:12:36.976Z,100935.06
2018-12-24T09:15:05.154Z,100938.39
2018-12-24T09:17:35.059Z,100941.50
2018-12-24T09:20:02.938Z,100942.48
2018-12-24T09:22:30.767Z,100945.04
2018-12-24T09:24:58.600Z,100954.84
2018-12-24T09:27:26.742Z,100961.94
2018-12-24T09:29:54.918Z,100954.63
2018-12-24T09:32:23.094Z,100963.27
2018-12-24T09:34:50.968Z,100970.14
2018-12-24T09:37:18.769Z,100963.55
2018-12-24T09:39:46.622Z,100977.58
2018-12-24T09:42:14.781Z,100983.94
2018-12-24T09:44:42.939Z,100987.50
2018-12-24T09:47:11.112Z,100993.41
2018-12-24T09:49:38.957Z,100995.26
2018-12-24T09:52:07.055Z,100995.44
2018-12-24T09:54:35.232Z,100995.77
2018-12-24T09:57:03.403Z,101024.77
2018-12-24T09:59:31.581Z,101013.13
2018-12-24T10:01:59.754Z,101023.80
2018-12-24T10:04:27.593Z,101026.53
2018-12-24T10:06:57.432Z,101022.38
2018-12-24T10:09:25.631Z,101028.98
2018-12-24T10:11:53.473Z,101038.14
2018-12-24T10:14:21.306Z,101033.36
2018-12-24T10:16:49.145Z,101040.52
2018-12-24T10:19:16.980Z,101037.20
2018-12-24T10:21:44.897Z,101042.33
2018-12-24T10:24:13.016Z,101057.27
2018-12-24T10:26:40.859Z,101048.42
2018-12-24T10:29:08.973Z,101056.98
2018-12-24T10:31:36.818Z,101056.77
2018-12-24T10:34:05.012Z,101055.59
2018-12-24T10:36:33.190Z,101055.24
2018-12-24T10:39:01.368Z,101061.37
2018-12-24T10:41:29.830Z,101064.19
2018-12-24T10:43:57.747Z,101064.69
2018-12-24T10:46:25.586Z,101064.43
2018-12-24T10:48:53.418Z,101066.69
2018-12-24T10:51:21.620Z,101068.60
2018-12-24T10:53:49.778Z,101069.54
2018-12-24T10:56:17.949Z,101076.98
2018-12-24T10:58:46.126Z,101066.94
2018-12-24T11:01:14.297Z,101079.38
2018-12-24T11:03:42.132Z,101082.82
2018-12-24T11:06:10.347Z,101079.62
2018-12-24T11:08:38.532Z,101079.88
2018-12-24T11:11:06.693Z,101074.09
2018-12-24T11:13:34.868Z,101085.92
2018-12-24T11:16:03.043Z,101077.80
2018-12-24T11:18:30.873Z,101086.02
2018-12-24T11:20:58.999Z,101090.87
2018-12-24T11:23:26.831Z,101095.25
2018-12-24T11:25:54.669Z,101098.45
2018-12-24T11:28:22.783Z,101098.53
2018-12-24T11:30:50.962Z,101100.96
2018-12-24T11:33:19.136Z,101107.05
2018-12-24T11:35:47.311Z,101114.32
2018-12-24T11:38:15.142Z,101109.05
2018-12-24T11:40:43.270Z,101108.02
2018-12-24T11:43:11.420Z,101105.01
2018-12-24T11:45:39.259Z,101099.90
2018-12-24T11:48:07.376Z,101109.47
2018-12-24T11:50:35.554Z,101104.20
2018-12-24T11:53:03.730Z,101108.88
2018-12-24T11:55:31.570Z,101123.17
2018-12-24T11:57:59.409Z,101125.09
2018-12-24T12:00:27.245Z,101123.78
2018-12-24T12:02:55.078Z,101139.88
2018-12-24T12:05:23.253Z,101134.20
2018-12-24T12:07:51.087Z,101134.59
2018-12-24T12:10:18.916Z,101144.07
2018-12-24T12:12:46.762Z,101150.42
2018-12-24T12:15:14.599Z,101160.41
2018-12-24T12:17:42.793Z,101159.64
2018-12-24T12:20:10.970Z,101168.08
2018-12-24T12:22:38.812Z,101169.36
2018-12-24T12:25:06.905Z,101166.23
2018-12-24T12:27:34.758Z,101179.73
2018-12-24T12:30:02.664Z,101186.63
2018-12-24T12:32:30.815Z,101192.34
2018-12-24T12:34:58.644Z,101196.89
2018-12-24T12:37:26.485Z,101190.92
2018-12-24T12:39:54.621Z,101215.42
2018-12-24T12:42:22.799Z,101210.72
2018-12-24T12:44:50.971Z,101221.62
2018-12-24T12:47:18.814Z,101228.53
2018-12-24T12:49:46.911Z,101236.40
2018-12-24T12:52:15.104Z,101253.19
2018-12-24T12:54:43.279Z,101254.34
2018-12-24T12:57:11.452Z,101258.45
2018-12-24T12:59:39.718Z,101272.47
2018-12-24T13:02:07.539Z,101275.93
2018-12-24T13:04:35.367Z,101278.10
2018-12-24T13:07:03.521Z,101282.20
2018-12-24T13:09:31.345Z,101293.95
2018-12-24T13:11:59.459Z,101300.80
2018-12-24T13:14:27.633Z,101308.69
2018-12-24T13:16:55.478Z,101315.11
2018-12-24T13:19:23.318Z,101317.65
2018-12-24T13:21:51.162Z,101320.82
2018-12-24T13:24:19.306Z,101320.20
2018-12-24T13:26:47.477Z,101335.77
2018-12-24T13:29:15.653Z,101336.64
2018-12-24T13:31:43.852Z,101330.17
2018-12-24T13:34:12.008Z,101338.45
2018-12-24T13:36:39.919Z,101344.55
2018-12-24T13:39:07.749Z,101345.70
2018-12-24T13:41:35.591Z,101348.90
2018-12-24T13:44:03.781Z,101355.75
2018-12-24T13:46:31.622Z,101363.78
2018-12-24T13:48:59.453Z,101368.75
2018-12-24T13:51:27.586Z,101372.22
2018-12-24T13:53:55.758Z,101371.04
2018-12-24T13:56:23.601Z,101379.61
2018-12-24T13:58:51.697Z,101385.33
2018-12-24T14:01:19.872Z,101387.48
2018-12-24T14:03:48.046Z,101388.26
2018-12-24T14:06:16.221Z,101395.25
2018-12-24T14:08:44.394Z,101398.19
2018-12-24T14:11:12.226Z,101396.17
2018-12-24T14:14:14.005Z,101407.13
2018-12-24T14:16:42.091Z,101416.94
2018-12-24T14:19:10.061Z,101420.64
2018-12-24T14:21:38.031Z,101428.91
2018-12-24T14:24:06.000Z,101432.12
2018-12-24T14:26:33.973Z,101430.08
2018-12-24T14:29:01.941Z,101436.03
2018-12-24T14:31:29.587Z,101450.44
2018-12-24T14:33:57.470Z,101448.14
2018-12-24T14:36:25.089Z,101446.12
2018-12-24T14:38:53.018Z,101459.22
2018-12-24T14:41:20.969Z,101466.48
2018-12-24T14:43:48.593Z,101470.83
2018-12-24T14:46:16.213Z,101473.25
2018-12-24T14:48:44.164Z,101483.05
2018-12-24T14:51:12.146Z,101490.19
2018-12-24T14:53:40.101Z,101495.29
2018-12-24T14:56:08.070Z,101495.66
2018-12-24T14:58:36.041Z,101498.72
2018-12-24T15:01:04.011Z,101509.78
2018-12-24T15:03:31.979Z,101514.19
2018-12-24T15:05:59.845Z,101516.31
2018-12-24T15:08:27.469Z,101513.12
2018-12-24T15:10:55.379Z,101505.34
2018-12-24T15:13:23.346Z,101518.45
2018-12-24T15:15:51.322Z,101528.30
2018-12-24T15:18:19.287Z,101522.16
2018-12-24T15:20:47.253Z,101537.06
2018-12-24T15:23:15.223Z,101547.16
2018-12-24T15:25:43.198Z,101540.02
2018-12-24T15:28:10.817Z,101551.22
2018-12-24T15:30:38.723Z,101555.61
2018-12-24T15:33:06.697Z,101551.59
2018-12-24T15:35:34.314Z,101562.76
2018-12-24T15:38:01.947Z,101568.52
2018-12-24T15:40:29.567Z,101564.14
2018-12-24T15:42:57.566Z,101567.44
2018-12-24T15:45:25.519Z,101566.17
2018-12-24T15:47:53.144Z,101566.28
2018-12-24T15:50:20.775Z,101569.69
2018-12-24T15:52:48.716Z,101579.61
2018-12-24T15:55:16.685Z,101593.05
2018-12-24T15:57:44.312Z,101593.39
2018-12-24T16:00:12.212Z,101592.12
2018-12-24T16:02:40.177Z,101600.34
2018-12-24T16:05:08.053Z,101601.41
2018-12-24T16:07:35.678Z,101612.75
2018-12-24T16:10:03.579Z,101617.84
2018-12-24T16:12:31.545Z,101622.45
2018-12-24T16:14:59.517Z,101626.00
2018-12-24T16:17:27.482Z,101628.25
2018-12-24T16:19:55.473Z,101636.34
2018-12-24T16:22:23.097Z,101640.58
2018-12-24T16:24:50.981Z,101637.92
2018-12-24T16:27:18.849Z,101640.54
2018-12-24T16:29:46.824Z,101634.06
2018-12-24T16:32:14.444Z,101643.17
2018-12-24T16:34:42.352Z,101639.05
2018-12-24T16:37:09.973Z,101643.57
2018-12-24T16:39:37.987Z,101634.92
2018-12-24T16:42:05.974Z,101640.80
2018-12-24T16:44:33.938Z,101643.98
2018-12-24T16:47:01.560Z,101643.36
2018-12-24T16:49:29.450Z,101636.45
2018-12-24T16:51:57.439Z,101631.03
2018-12-24T16:54:25.069Z,101636.08
2018-12-24T16:56:52.952Z,101630.47
2018-12-24T16:59:20.916Z,101637.42
2018-12-24T17:01:48.891Z,101633.12
2018-12-24T17:04:16.517Z,101630.55
2018-12-24T17:06:44.418Z,101629.46
2018-12-24T17:09:12.056Z,101634.17
2018-12-24T17:11:39.674Z,101632.42
2018-12-24T17:14:07.304Z,101641.11
2018-12-24T17:16:35.277Z,101647.78
2018-12-24T17:19:03.242Z,101636.55
2018-12-24T17:21:31.215Z,101648.27
2018-12-24T17:23:59.183Z,101642.88
2018-12-24T17:26:27.157Z,101641.22
2018-12-24T17:28:55.123Z,101638.97
2018-12-24T17:31:23.099Z,101627.36
2018-12-24T17:33:51.061Z,101635.42
2018-12-24T17:36:18.684Z,101636.80
2018-12-24T17:38:46.593Z,101635.45
2018-12-24T17:41:14.562Z,101631.52
2018-12-24T17:43:42.534Z,101628.67
2018-12-24T17:46:10.501Z,101630.47
2018-12-24T17:48:38.472Z,101625.83
2018-12-24T17:51:06.437Z,101623.99
2018-12-24T17:53:34.072Z,101622.61
2018-12-24T17:56:01.976Z,101622.49
2018-12-24T17:58:29.943Z,101630.09
2018-12-24T18:00:57.909Z,101632.53
2018-12-24T18:03:25.538Z,101647.55
2018-12-24T18:05:53.153Z,101664.34
2018-12-24T18:08:21.103Z,101668.16
2018-12-24T18:10:50.561Z,101674.53
2018-12-24T18:13:18.061Z,101663.14
2018-12-24T18:15:46.036Z,101676.59
2018-12-24T18:18:13.668Z,101680.04
2018-12-24T18:20:41.584Z,101681.42
2018-12-24T18:23:09.202Z,101690.64
2018-12-24T18:25:37.090Z,101695.52
2018-12-24T18:28:05.064Z,101691.28
2018-12-24T18:30:32.691Z,101691.17
2018-12-24T18:33:00.323Z,101685.02
2018-12-24T18:35:27.955Z,101685.81
2018-12-24T18:37:55.946Z,101679.44
2018-12-24T18:40:23.891Z,101682.25
2018-12-24T18:42:51.852Z,101686.11
2018-12-24T18:45:19.487Z,101674.27
2018-12-24T18:47:47.109Z,101672.62
2018-12-24T18:50:15.065Z,101670.94
2018-12-24T18:52:43.036Z,101671.50
2018-12-24T18:55:10.993Z,101665.20
2018-12-24T18:57:38.957Z,101667.90
2018-12-24T19:00:06.930Z,101667.79
2018-12-24T19:02:34.554Z,101678.24
2018-12-24T19:05:02.473Z,101671.64
2018-12-24T19:07:30.428Z,101664.48
2018-12-24T19:09:58.394Z,101649.69
2018-12-24T19:12:26.019Z,101654.03
2018-12-24T19:14:53.947Z,101653.25
2018-12-24T19:17:21.564Z,101647.81
2018-12-24T19:19:49.471Z,101644.36
2018-12-24T19:22:17.430Z,101652.50
2018-12-24T19:24:45.395Z,101662.31
2018-12-24T19:27:13.383Z,101663.25
2018-12-24T19:29:41.336Z,101660.06
2018-12-24T19:32:09.302Z,101656.35
2018-12-24T19:34:36.933Z,101656.13
2018-12-24T19:37:04.837Z,101661.22
2018-12-24T19:39:32.462Z,101661.22
2018-12-24T19:42:00.361Z,101645.44
2018-12-24T19:44:28.002Z,101650.28
2018-12-24T19:46:55.617Z,101653.11
2018-12-24T19:49:23.557Z,101642.14
2018-12-24T19:51:51.181Z,101644.66
2018-12-24T19:54:19.085Z,101649.00
2018-12-24T19:56:47.053Z,101655.66
2018-12-24T19:59:15.042Z,101658.82
2018-12-24T20:01:42.994Z,101664.81
2018-12-24T20:04:10.980Z,101671.19
2018-12-24T20:06:38.934Z,101670.95
2018-12-24T20:09:06.566Z,101668.38
2018-12-24T20:11:34.459Z,101668.38
2018-12-24T20:14:02.429Z,101664.93
2018-12-24T20:16:30.424Z,101661.89
2018-12-24T20:18:58.048Z,101651.31
2018-12-24T20:21:26.034Z,101663.39
2018-12-24T20:23:54.008Z,101663.02
2018-12-24T20:26:21.652Z,101662.03
2018-12-24T20:28:49.535Z,101661.52
2018-12-24T20:31:17.176Z,101662.27
2018-12-24T20:33:45.061Z,101663.80
2018-12-24T20:36:12.694Z,101668.38
2018-12-24T20:38:40.615Z,101671.59
2018-12-24T20:41:08.565Z,101662.30
2018-12-24T20:43:36.554Z,101663.05
2018-12-24T20:46:04.503Z,101668.17
2018-12-24T20:48:32.494Z,101665.86
2018-12-24T20:51:00.440Z,101675.08
2018-12-24T20:53:28.410Z,101677.45
2018-12-24T20:55:56.378Z,101673.80
2018-12-24T20:58:23.996Z,101672.75
2018-12-24T21:00:51.912Z,101678.75
2018-12-24T21:03:19.880Z,101685.01
2018-12-24T21:05:47.511Z,101688.83
2018-12-24T21:08:15.407Z,101698.28
2018-12-24T21:10:43.380Z,101699.55
2018-12-24T21:13:11.002Z,101696.74
2018-12-24T21:15:38.633Z,101700.30
2018-12-24T21:18:14.845Z,101691.64
2018-12-24T21:20:36.202Z,101696.48
2018-12-24T21:23:04.233Z,101693.18
2018-12-24T21:25:32.118Z,101697.52
2018-12-24T21:27:59.737Z,101699.58
2018-12-24T21:30:27.644Z,101698.83
2018-12-24T21:32:55.617Z,101703.17
2018-12-24T21:35:23.586Z,101719.78
2018-12-24T21:37:51.206Z,101716.70
2018-12-24T21:40:19.122Z,101717.20
2018-12-24T21:42:54.445Z,101714.91
2018-12-24T21:45:16.434Z,101710.59
2018-12-24T21:47:44.067Z,101711.11
2018-12-24T21:50:11.690Z,101699.66
2018-12-24T21:52:39.314Z,101684.86
2018-12-24T21:55:07.242Z,101683.44
2018-12-24T21:57:35.211Z,101673.98
2018-12-24T22:00:02.849Z,101671.03
2018-12-24T22:02:30.849Z,101673.20
2018-12-24T22:04:58.528Z,101676.91
2018-12-24T22:07:26.474Z,101686.63
2018-12-24T22:09:54.095Z,101686.73
2018-12-24T22:12:21.725Z,101680.73
2018-12-24T22:14:49.671Z,101679.23
2018-12-24T22:17:17.302Z,101680.41
2018-12-24T22:19:45.195Z,101679.64
2018-12-24T22:22:13.173Z,101662.68
2018-12-24T22:24:41.143Z,101666.12
2018-12-24T22:27:09.105Z,101670.09
2018-12-24T22:29:37.075Z,101667.66
2018-12-24T22:32:04.711Z,101663.94
2018-12-24T22:34:32.379Z,101661.29
2018-12-24T22:37:00.007Z,101658.13
2018-12-24T22:39:27.931Z,101656.06
2018-12-24T22:41:55.907Z,101654.03
2018-12-24T22:44:23.522Z,101644.09
2018-12-24T22:46:51.429Z,101635.92
2018-12-24T22:49:19.397Z,101629.05
2018-12-24T22:51:47.038Z,101630.31
2018-12-24T22:54:14.932Z,101631.09
2018-12-24T22:56:42.568Z,101628.27
2018-12-24T22:59:10.458Z,101631.47
2018-12-24T23:01:38.426Z,101627.77
2018-12-24T23:04:06.046Z,101623.05
2018-12-24T23:06:33.960Z,101619.63
2018-12-24T23:09:01.924Z,101625.48
2018-12-24T23:11:29.563Z,101626.48
2018-12-24T23:13:57.461Z,101623.07
2018-12-24T23:16:25.429Z,101625.48
2018-12-24T23:18:53.067Z,101624.20
2018-12-24T23:21:20.704Z,101627.28
2018-12-24T23:23:48.333Z,101639.52
2018-12-24T23:26:15.980Z,101647.67
2018-12-24T23:28:44.057Z,101651.41
2018-12-24T23:31:11.910Z,101650.22
2018-12-24T23:33:39.885Z,101653.06
2018-12-24T23:36:07.515Z,101646.68
2018-12-24T23:38:35.142Z,101647.95
2018-12-24T23:41:03.075Z,101652.55
2018-12-24T23:43:30.779Z,101645.91
2018-12-24T23:45:58.705Z,101647.45
2018-12-24T23:48:26.674Z,101647.56
2018-12-24T23:50:54.305Z,101644.63
2018-12-24T23:53:22.205Z,101636.48
2018-12-24T23:55:50.193Z,101646.17
2018-12-24T23:58:18.153Z,101630.98
